Time;durP1;ratioP1;P1;durP2;ratioP2;P2;SDS_P1;SDS_P2;PMS_P1;PMS_P2;Temp;Humidity;BMP_temperature;BMP_pressure;BME280_temperature;BME280_humidity;BME280_pressure;Samples;Min_cycle;Max_cycle;Signal;HPM_P1;HPM_P2
2020/12/23 00:01:25;;;;;;;73.15;6.07;;;3.30;99.90;;;;;;4748382;30;20458;-84
2020/12/23 00:03:53;;;;;;;47.70;5.57;;;3.30;99.90;;;;;;4731924;30;20052;-84
2020/12/23 00:06:19;;;;;;;67.65;7.25;;;3.30;99.90;;;;;;4732790;30;20060;-85
2020/12/23 00:08:44;;;;;;;106.22;17.42;;;3.20;99.90;;;;;;4732091;30;20490;-86
2020/12/23 00:11:14;;;;;;;39.63;11.65;;;3.30;99.90;;;;;;4718303;30;20052;-86
2020/12/23 00:13:40;;;;;;;38.60;5.75;;;3.20;99.90;;;;;;4732577;30;20056;-85
2020/12/23 00:16:06;;;;;;;68.72;8.18;;;3.20;99.90;;;;;;4732422;30;20040;-85
2020/12/23 00:18:32;;;;;;;56.22;6.63;;;3.20;99.90;;;;;;4732463;30;20105;-85
2020/12/23 00:20:58;;;;;;;98.47;4.97;;;3.20;99.90;;;;;;4732013;30;20056;-85
2020/12/23 00:23:24;;;;;;;134.20;5.45;;;3.20;99.90;;;;;;4718339;30;20045;-86
2020/12/23 00:25:50;;;;;;;138.20;5.65;;;3.20;99.90;;;;;;4732021;30;20048;-86
2020/12/23 00:28:15;;;;;;;113.65;11.77;;;3.20;99.90;;;;;;4718345;30;20048;-85
2020/12/23 00:30:41;;;;;;;251.48;24.17;;;3.30;99.90;;;;;;4716470;30;20413;-87
2020/12/23 00:33:07;;;;;;;117.82;11.15;;;3.30;99.90;;;;;;4713475;30;20048;-85
2020/12/23 00:35:33;;;;;;;136.20;9.20;;;3.30;99.90;;;;;;4717706;30;20052;-86
2020/12/23 00:37:59;;;;;;;187.55;10.93;;;3.30;99.90;;;;;;4747275;30;20405;-86
2020/12/23 00:40:24;;;;;;;203.15;12.90;;;3.40;99.90;;;;;;4745703;30;20044;-85
2020/12/23 00:42:50;;;;;;;362.08;21.38;;;3.40;99.90;;;;;;4716744;30;20048;-87
2020/12/23 00:45:17;;;;;;;251.00;17.00;;;3.50;99.90;;;;;;4732022;30;20457;-86
2020/12/23 00:47:42;;;;;;;200.35;17.55;;;3.50;99.90;;;;;;4735387;30;20074;-87
2020/12/23 00:50:08;;;;;;;111.35;13.65;;;3.60;99.90;;;;;;4720453;30;20048;-86
2020/12/23 00:52:34;;;;;;;247.38;25.40;;;3.70;99.90;;;;;;4706284;30;20072;-86
2020/12/23 00:55:00;;;;;;;169.48;22.95;;;3.80;99.90;;;;;;4719110;30;20041;-86
2020/12/23 00:57:26;;;;;;;76.63;16.20;;;3.80;99.90;;;;;;4735177;30;20509;-86
2020/12/23 00:59:52;;;;;;;33.72;12.38;;;3.90;99.90;;;;;;4705128;30;20068;-87
2020/12/23 01:02:17;;;;;;;15.65;8.38;;;3.90;99.90;;;;;;4719863;30;20383;-86
2020/12/23 01:04:43;;;;;;;15.30;8.27;;;4.00;99.90;;;;;;4735456;30;20110;-86
2020/12/23 01:07:09;;;;;;;17.40;10.52;;;4.00;99.90;;;;;;4720215;30;20052;-86
2020/12/23 01:09:35;;;;;;;33.50;14.38;;;4.10;99.90;;;;;;4720918;30;20472;-86
2020/12/23 01:12:01;;;;;;;17.25;11.07;;;4.10;99.90;;;;;;4735037;30;20055;-87
2020/12/23 01:14:26;;;;;;;21.90;12.40;;;4.10;99.90;;;;;;4735566;30;20490;-87
2020/12/23 01:16:52;;;;;;;35.72;14.95;;;4.10;99.90;;;;;;4734630;30;20058;-87
2020/12/23 01:19:18;;;;;;;47.05;16.15;;;4.30;99.90;;;;;;4735379;30;20055;-86
2020/12/23 01:21:44;;;;;;;35.38;14.90;;;4.20;99.90;;;;;;4735065;30;20052;-86
2020/12/23 01:24:11;;;;;;;35.58;14.25;;;4.20;99.90;;;;;;4734860;30;20056;-87
2020/12/23 01:26:37;;;;;;;33.35;13.82;;;4.30;99.90;;;;;;4748740;30;20131;-86
2020/12/23 01:29:03;;;;;;;23.85;11.25;;;4.40;99.90;;;;;;4734541;30;20123;-86
2020/12/23 01:31:29;;;;;;;36.22;14.18;;;4.30;99.90;;;;;;4720993;30;20058;-87
2020/12/23 01:33:55;;;;;;;29.95;11.25;;;4.40;99.90;;;;;;4734791;30;20044;-87
2020/12/23 01:36:21;;;;;;;43.25;15.57;;;4.40;99.90;;;;;;4720214;30;20137;-87
2020/12/23 01:38:46;;;;;;;46.58;16.38;;;4.40;99.90;;;;;;4735265;30;20474;-87
2020/12/23 01:41:12;;;;;;;32.50;12.18;;;4.40;99.90;;;;;;4750558;30;20404;-86
2020/12/23 01:43:40;;;;;;;22.08;10.40;;;4.50;99.90;;;;;;4720563;30;20052;-87
2020/12/23 01:46:06;;;;;;;24.30;10.13;;;4.50;99.90;;;;;;4734898;30;20183;-87
2020/12/23 01:48:32;;;;;;;31.15;13.68;;;4.60;99.90;;;;;;4761965;30;20540;-86
2020/12/23 01:51:01;;;;;;;21.15;9.07;;;4.50;99.90;;;;;;4734092;30;20460;-87
2020/12/23 01:53:27;;;;;;;24.80;12.40;;;4.60;99.90;;;;;;4720447;30;20530;-88
2020/12/23 01:55:56;;;;;;;23.90;11.82;;;4.70;99.90;;;;;;4705250;30;20498;-88
2020/12/23 01:58:22;;;;;;;18.17;10.60;;;4.70;99.90;;;;;;4719529;30;20056;-87
2020/12/23 02:00:48;;;;;;;18.48;9.93;;;4.70;99.90;;;;;;4734750;30;20048;-88
2020/12/23 02:03:13;;;;;;;12.85;8.05;;;4.70;99.90;;;;;;4719413;30;20102;-87
2020/12/23 02:05:41;;;;;;;16.85;9.50;;;4.80;99.90;;;;;;4722015;30;20060;-87
2020/12/23 02:08:08;;;;;;;9.95;8.48;;;4.80;99.90;;;;;;4734107;30;20044;-87
2020/12/23 02:10:34;;;;;;;9.40;7.97;;;4.80;99.90;;;;;;4734435;30;20048;-87
2020/12/23 02:13:00;;;;;;;18.33;10.27;;;4.80;99.90;;;;;;4749738;30;20070;-87
2020/12/23 02:15:27;;;;;;;20.80;11.38;;;4.80;99.90;;;;;;4750682;30;20048;-87
2020/12/23 02:17:53;;;;;;;17.00;10.90;;;4.90;99.90;;;;;;4733011;30;20131;-89
2020/12/23 02:20:19;;;;;;;14.57;10.50;;;4.80;99.90;;;;;;4705705;30;20127;-87
2020/12/23 02:22:48;;;;;;;10.88;8.85;;;4.80;99.90;;;;;;4734558;30;20044;-87
2020/12/23 02:25:15;;;;;;;18.65;11.50;;;4.80;99.90;;;;;;4733475;30;20240;-87
2020/12/23 02:27:41;;;;;;;14.68;10.20;;;4.90;99.90;;;;;;4734383;30;20383;-88
2020/12/23 02:30:09;;;;;;;16.15;10.40;;;4.90;99.90;;;;;;4719398;30;20044;-87
2020/12/23 02:32:35;;;;;;;18.13;11.82;;;4.90;99.90;;;;;;4734324;30;20420;-87
2020/12/23 02:35:02;;;;;;;19.75;10.63;;;4.90;99.90;;;;;;4733717;30;20056;-87
2020/12/23 02:37:28;;;;;;;13.40;10.23;;;4.90;99.90;;;;;;4719802;30;20064;-87
2020/12/23 02:39:55;;;;;;;25.80;12.05;;;5.00;99.90;;;;;;4719196;30;20497;-88
2020/12/23 02:42:23;;;;;;;16.00;10.25;;;5.00;99.90;;;;;;4733918;30;20444;-86
2020/12/23 02:44:49;;;;;;;17.08;10.60;;;5.00;99.90;;;;;;4733985;30;20059;-87
2020/12/23 02:47:17;;;;;;;18.38;10.40;;;5.10;99.90;;;;;;4733658;30;20040;-87
2020/12/23 02:49:44;;;;;;;26.17;12.93;;;5.10;99.90;;;;;;4733991;30;20378;-87
2020/12/23 02:52:11;;;;;;;17.63;10.40;;;5.20;99.90;;;;;;4748854;30;20044;-87
2020/12/23 02:54:37;;;;;;;22.50;11.93;;;5.20;99.90;;;;;;4719484;30;20136;-87
2020/12/23 02:57:04;;;;;;;22.42;11.40;;;5.20;99.90;;;;;;4732986;30;20063;-86
2020/12/23 02:59:30;;;;;;;19.35;12.32;;;5.10;99.90;;;;;;4749979;30;20078;-87
2020/12/23 03:01:55;;;;;;;25.02;11.95;;;5.20;99.90;;;;;;4733674;30;20059;-88
2020/12/23 03:04:21;;;;;;;18.52;10.90;;;5.20;99.90;;;;;;4718924;30;20127;-87
2020/12/23 03:06:47;;;;;;;17.17;11.25;;;5.30;99.90;;;;;;4749280;30;20071;-87
2020/12/23 03:09:13;;;;;;;18.23;10.50;;;5.30;99.90;;;;;;4718126;30;20054;-86
2020/12/23 03:11:40;;;;;;;22.05;11.68;;;5.30;99.90;;;;;;4733716;30;20059;-86
2020/12/23 03:14:09;;;;;;;18.92;11.15;;;5.30;99.90;;;;;;4748245;30;20079;-86
2020/12/23 03:16:35;;;;;;;24.52;12.18;;;5.30;99.90;;;;;;4719221;30;20056;-86
2020/12/23 03:19:01;;;;;;;24.98;12.02;;;5.30;99.90;;;;;;4732675;30;20052;-87
2020/12/23 03:21:26;;;;;;;22.70;13.13;;;5.30;99.90;;;;;;4719010;30;20101;-87
2020/12/23 03:23:52;;;;;;;15.98;11.27;;;5.30;99.90;;;;;;4732926;30;20056;-87
2020/12/23 03:26:18;;;;;;;21.13;11.07;;;5.30;99.90;;;;;;4748547;30;20603;-87
2020/12/23 03:28:44;;;;;;;23.27;12.25;;;5.20;99.90;;;;;;4749173;30;20059;-87
2020/12/23 03:31:10;;;;;;;16.73;11.05;;;5.30;99.90;;;;;;4732740;30;20131;-87
2020/12/23 03:33:36;;;;;;;22.42;12.13;;;5.30;99.90;;;;;;4733249;30;20426;-87
2020/12/23 03:36:02;;;;;;;16.27;11.25;;;5.30;99.90;;;;;;4748260;30;20052;-87
2020/12/23 03:38:28;;;;;;;19.20;11.55;;;5.30;99.90;;;;;;4737624;30;20116;-86
2020/12/23 03:40:56;;;;;;;21.20;12.02;;;5.30;99.90;;;;;;4725122;30;20056;-86
2020/12/23 03:43:23;;;;;;;22.10;12.95;;;5.30;99.90;;;;;;4747994;30;20052;-86
2020/12/23 03:45:49;;;;;;;22.52;11.65;;;5.30;99.90;;;;;;4718474;30;20056;-87
2020/12/23 03:48:16;;;;;;;30.38;13.20;;;5.30;99.90;;;;;;4717434;30;20052;-86
2020/12/23 03:50:42;;;;;;;30.67;12.80;;;5.30;99.90;;;;;;4733190;30;20090;-87
2020/12/23 03:53:09;;;;;;;27.15;14.77;;;5.30;99.90;;;;;;4717681;30;20080;-87
2020/12/23 03:55:35;;;;;;;33.70;12.98;;;5.30;99.90;;;;;;4733123;30;20045;-87
2020/12/23 03:58:02;;;;;;;38.13;14.43;;;5.30;99.90;;;;;;4717989;30;20126;-88
2020/12/23 04:00:28;;;;;;;33.55;14.95;;;5.20;99.90;;;;;;4718414;30;20482;-87
2020/12/23 04:02:54;;;;;;;33.15;14.73;;;5.30;99.90;;;;;;4718985;30;20051;-86
2020/12/23 04:05:20;;;;;;;33.60;13.35;;;5.30;99.90;;;;;;4732208;30;20052;-87
2020/12/23 04:07:46;;;;;;;24.83;13.48;;;5.30;99.90;;;;;;4733014;30;20052;-87
2020/12/23 04:10:12;;;;;;;39.78;14.82;;;5.30;99.90;;;;;;4732067;30;20413;-88
2020/12/23 04:12:38;;;;;;;35.28;14.95;;;5.30;99.90;;;;;;4745657;30;20040;-86
2020/12/23 04:15:06;;;;;;;28.42;13.27;;;5.30;99.90;;;;;;4717618;30;20059;-87
2020/12/23 04:17:32;;;;;;;36.28;13.55;;;5.40;99.90;;;;;;4732839;30;20585;-88
2020/12/23 04:19:58;;;;;;;55.00;15.35;;;5.40;99.90;;;;;;4733162;30;20048;-87
2020/12/23 04:22:28;;;;;;;33.72;13.00;;;5.40;99.90;;;;;;4734538;30;20838;-87
2020/12/23 04:24:59;;;;;;;46.80;16.10;;;5.40;99.90;;;;;;4751628;30;20394;-86
2020/12/23 04:27:25;;;;;;;;;;;5.40;99.90;;;;;;4735279;30;20036;-87
2020/12/23 04:29:51;;;;;;;54.78;16.77;;;5.40;99.90;;;;;;4750612;30;19930;-87
2020/12/23 04:32:17;;;;;;;37.47;15.13;;;5.50;99.90;;;;;;4718550;30;20076;-87
2020/12/23 04:34:43;;;;;;;45.30;15.07;;;5.50;99.90;;;;;;4721425;30;20055;-87
2020/12/23 04:37:09;;;;;;;41.50;15.45;;;5.50;99.90;;;;;;4720673;30;20048;-87
2020/12/23 04:39:35;;;;;;;44.08;16.05;;;5.50;99.90;;;;;;4735989;30;20048;-87
2020/12/23 04:42:00;;;;;;;34.58;14.13;;;5.50;99.90;;;;;;4721971;30;20080;-87
2020/12/23 04:44:26;;;;;;;46.28;17.67;;;5.50;99.90;;;;;;4751572;30;20040;-88
2020/12/23 04:46:55;;;;;;;36.65;15.50;;;5.60;99.90;;;;;;4721612;30;20527;-87
2020/12/23 04:49:23;;;;;;;66.82;22.33;;;5.50;99.90;;;;;;4751221;30;20059;-87
2020/12/23 04:51:55;;;;;;;52.58;20.17;;;5.50;99.90;;;;;;4751527;30;20106;-88
2020/12/23 04:54:22;;;;;;;89.10;24.45;;;5.60;99.90;;;;;;4734852;30;20048;-87
2020/12/23 04:56:49;;;;;;;61.60;21.85;;;5.70;99.90;;;;;;4735541;30;20199;-87
2020/12/23 04:59:15;;;;;;;55.20;21.40;;;5.70;99.90;;;;;;4735189;30;20048;-86
2020/12/23 05:01:41;;;;;;;57.33;21.52;;;5.70;99.90;;;;;;4721230;30;20048;-86
2020/12/23 05:04:07;;;;;;;53.33;18.90;;;5.60;99.90;;;;;;4735390;30;20311;-87
2020/12/23 05:06:36;;;;;;;38.10;16.45;;;5.70;99.90;;;;;;4706491;30;20562;-86
2020/12/23 05:09:04;;;;;;;45.40;16.65;;;5.80;99.90;;;;;;4750879;30;20563;-86
2020/12/23 05:11:35;;;;;;;63.47;21.58;;;5.80;99.90;;;;;;4735384;30;20060;-86
2020/12/23 05:14:08;;;;;;;53.92;19.05;;;5.80;99.90;;;;;;4735786;30;20067;-86
2020/12/23 05:16:34;;;;;;;55.35;20.63;;;5.90;99.90;;;;;;4735789;30;20048;-86
2020/12/23 05:19:00;;;;;;;89.05;26.15;;;5.90;99.90;;;;;;4734828;30;20056;-86
2020/12/23 05:21:29;;;;;;;71.13;24.00;;;5.90;99.90;;;;;;4721324;30;20072;-86
2020/12/23 05:24:00;;;;;;;62.30;19.83;;;5.80;99.90;;;;;;4720824;30;20060;-86
2020/12/23 05:26:26;;;;;;;72.75;25.42;;;5.90;99.90;;;;;;4720298;30;20065;-87
2020/12/23 05:28:52;;;;;;;64.90;21.73;;;5.90;99.90;;;;;;4735190;30;20056;-87
2020/12/23 05:31:21;;;;;;;50.83;20.83;;;6.00;99.90;;;;;;4734407;30;20401;-87
2020/12/23 05:33:49;;;;;;;54.13;19.35;;;6.00;99.90;;;;;;4751132;30;20048;-87
2020/12/23 05:36:17;;;;;;;66.80;21.80;;;6.00;99.90;;;;;;4720014;30;20395;-88
2020/12/23 05:38:44;;;;;;;45.03;19.23;;;6.00;99.90;;;;;;4734957;30;20048;-87
2020/12/23 05:41:12;;;;;;;50.05;20.90;;;6.00;99.90;;;;;;4734508;30;20048;-88
2020/12/23 05:43:39;;;;;;;43.13;18.60;;;6.10;99.90;;;;;;4709353;30;20052;-86
2020/12/23 05:46:07;;;;;;;38.70;19.38;;;6.00;99.90;;;;;;4724487;30;20049;-87
2020/12/23 05:48:36;;;;;;;32.88;16.63;;;6.10;99.90;;;;;;4727992;30;20048;-86
2020/12/23 05:51:04;;;;;;;47.20;20.73;;;6.10;99.90;;;;;;4735188;30;20052;-87
2020/12/23 05:53:35;;;;;;;36.90;18.63;;;6.10;99.90;;;;;;4719446;30;20059;-87
2020/12/23 05:56:04;;;;;;;62.25;22.58;;;6.20;99.90;;;;;;4750571;30;20044;-86
2020/12/23 05:58:31;;;;;;;42.72;19.77;;;6.10;99.90;;;;;;4749998;30;20052;-86
2020/12/23 06:01:02;;;;;;;37.50;18.00;;;6.10;99.90;;;;;;4720664;30;20059;-86
2020/12/23 06:03:54;;;;;;;60.67;23.98;;;6.20;99.90;;;;;;4749962;30;20058;-87
2020/12/23 06:06:23;;;;;;;51.22;22.17;;;6.20;99.90;;;;;;4719626;30;20394;-87
2020/12/23 06:08:58;;;;;;;54.42;22.13;;;6.20;99.90;;;;;;4734353;30;20484;-87
2020/12/23 06:11:24;;;;;;;48.95;21.38;;;6.20;99.90;;;;;;4749622;30;20417;-87
2020/12/23 06:14:13;;;;;;;62.30;25.17;;;6.20;99.90;;;;;;4734827;30;20059;-87
2020/12/23 06:16:57;;;;;;;64.03;26.25;;;6.20;99.90;;;;;;4734633;30;20537;-87
2020/12/23 06:19:29;;;;;;;38.92;20.20;;;6.20;99.90;;;;;;4749176;30;20078;-87
2020/12/23 06:21:59;;;;;;;62.63;25.33;;;6.30;99.90;;;;;;4750528;30;20106;-86
2020/12/23 06:24:28;;;;;;;60.03;25.58;;;6.30;99.90;;;;;;4749633;30;20138;-87
2020/12/23 06:26:57;;;;;;;53.40;24.63;;;6.30;99.90;;;;;;4734221;30;20056;-87
2020/12/23 06:29:25;;;;;;;53.42;22.90;;;6.40;99.90;;;;;;4749055;30;20056;-87
2020/12/23 06:31:53;;;;;;;56.22;25.20;;;6.40;99.90;;;;;;4734322;30;20052;-86
2020/12/23 06:34:24;;;;;;;62.85;25.75;;;6.30;99.90;;;;;;4749332;30;20051;-87
2020/12/23 06:36:51;;;;;;;42.55;20.67;;;6.40;99.90;;;;;;4750281;30;20406;-87
2020/12/23 06:39:31;;;;;;;40.75;20.45;;;6.30;99.90;;;;;;4749129;30;20052;-86
2020/12/23 06:42:00;;;;;;;52.70;22.70;;;6.40;99.90;;;;;;4738975;30;20072;-87
2020/12/23 06:44:51;;;;;;;79.20;29.17;;;6.40;99.90;;;;;;4733212;30;20052;-87
2020/12/23 06:47:31;;;;;;;81.88;27.00;;;6.40;99.90;;;;;;4733561;30;20043;-87
2020/12/23 06:50:00;;;;;;;80.38;27.17;;;6.40;99.90;;;;;;4749898;30;20044;-88
2020/12/23 06:52:29;;;;;;;56.13;22.55;;;6.50;99.90;;;;;;4749234;30;20036;-88
2020/12/23 06:55:08;;;;;;;57.28;24.15;;;6.50;99.90;;;;;;4749474;30;20052;-87
2020/12/23 06:57:37;;;;;;;51.38;20.95;;;6.50;99.90;;;;;;4733000;30;20113;-88
2020/12/23 07:00:25;;;;;;;49.55;22.40;;;6.50;99.90;;;;;;4719536;30;20066;-88
2020/12/23 07:02:55;;;;;;;38.22;19.38;;;6.50;99.90;;;;;;4732257;30;20699;-88
2020/12/23 07:05:21;;;;;;;46.88;20.55;;;6.50;99.90;;;;;;4721928;30;20497;-86
2020/12/23 07:07:53;;;;;;;59.65;24.55;;;6.50;99.90;;;;;;4741727;30;20040;-88
2020/12/23 07:10:23;;;;;;;58.08;23.88;;;6.50;99.90;;;;;;4713073;30;20053;-88
2020/12/23 07:13:04;;;;;;;55.70;22.90;;;6.50;99.90;;;;;;4731107;30;20067;-88
2020/12/23 07:15:30;;;;;;;54.10;22.27;;;6.50;99.90;;;;;;4752847;30;20048;-88
2020/12/23 07:18:11;;;;;;;45.53;21.58;;;6.50;99.90;;;;;;4706109;30;20066;-88
2020/12/23 07:20:45;;;;;;;65.28;24.63;;;6.50;99.90;;;;;;4704155;30;20059;-88
2020/12/23 07:23:13;;;;;;;51.55;21.48;;;6.50;99.90;;;;;;4749039;30;20072;-87
2020/12/23 07:25:51;;;;;;;60.58;25.60;;;6.50;99.90;;;;;;4732917;30;20056;-87
2020/12/23 07:28:32;;;;;;;66.75;26.25;;;6.50;99.90;;;;;;4748280;30;20167;-88
2020/12/23 07:30:59;;;;;;;49.15;21.85;;;6.50;99.90;;;;;;4749544;30;20052;-86
2020/12/23 07:33:26;;;;;;;59.80;24.23;;;6.50;99.90;;;;;;4732948;30;20048;-86
2020/12/23 07:35:54;;;;;;;56.60;24.35;;;6.50;99.90;;;;;;4749864;30;20060;-87
2020/12/23 07:38:22;;;;;;;71.18;25.42;;;6.60;99.90;;;;;;4732404;30;20436;-88
2020/12/23 07:40:48;;;;;;;66.78;24.48;;;6.60;99.90;;;;;;4718558;30;20094;-86
2020/12/23 07:43:16;;;;;;;86.43;27.45;;;6.60;99.90;;;;;;4733254;30;20047;-86
2020/12/23 07:45:43;;;;;;;74.05;26.52;;;6.60;99.90;;;;;;4732141;30;20410;-86
2020/12/23 07:48:18;;;;;;;72.72;26.27;;;6.60;99.90;;;;;;4736945;30;20055;-87
2020/12/23 07:50:46;;;;;;;64.65;26.13;;;6.60;99.90;;;;;;4748110;30;20564;-86
2020/12/23 07:53:18;;;;;;;75.13;26.13;;;6.60;99.90;;;;;;4717720;30;20416;-85
2020/12/23 07:55:47;;;;;;;67.78;24.13;;;6.60;99.90;;;;;;4731685;30;20113;-85
2020/12/23 07:58:13;;;;;;;71.88;25.00;;;6.60;99.90;;;;;;4732101;30;20076;-87
2020/12/23 08:00:41;;;;;;;74.68;28.30;;;6.60;99.90;;;;;;4731548;30;20048;-85
2020/12/23 08:03:08;;;;;;;68.15;24.92;;;6.70;99.90;;;;;;4718783;30;20449;-86
2020/12/23 08:05:35;;;;;;;61.47;25.63;;;6.70;99.90;;;;;;4731591;30;20084;-86
2020/12/23 08:08:01;;;;;;;66.82;23.35;;;6.80;99.90;;;;;;4748360;30;20099;-86
2020/12/23 08:10:27;;;;;;;76.28;25.30;;;6.70;99.90;;;;;;4749059;30;20501;-86
2020/12/23 08:12:58;;;;;;;51.50;21.10;;;6.70;99.90;;;;;;4748208;30;20748;-86
2020/12/23 08:15:27;;;;;;;60.80;24.02;;;6.70;99.90;;;;;;4731275;30;20044;-85
2020/12/23 08:18:07;;;;;;;63.17;24.10;;;6.70;99.90;;;;;;4732763;30;20055;-86
2020/12/23 08:20:34;;;;;;;66.80;24.90;;;6.70;99.90;;;;;;4729794;30;20055;-86
2020/12/23 08:23:00;;;;;;;66.05;25.52;;;6.70;99.90;;;;;;4728954;30;20230;-85
2020/12/23 08:25:29;;;;;;;63.72;24.60;;;6.80;99.90;;;;;;4732339;30;20469;-86
2020/12/23 08:28:01;;;;;;;67.38;24.35;;;6.80;99.90;;;;;;4720110;30;20052;-86
2020/12/23 08:30:29;;;;;;;69.00;24.58;;;6.80;99.90;;;;;;4733051;30;20067;-85
2020/12/23 08:33:13;;;;;;;67.65;23.38;;;6.80;99.90;;;;;;4729172;30;20052;-85
2020/12/23 08:35:44;;;;;;;57.95;21.70;;;6.80;99.90;;;;;;4715417;30;20502;-85
2020/12/23 08:38:21;;;;;;;50.72;19.77;;;6.90;99.90;;;;;;4716271;30;20053;-85
2020/12/23 08:40:51;;;;;;;57.67;21.75;;;6.90;99.90;;;;;;4735642;30;20498;-85
2020/12/23 08:43:21;;;;;;;50.20;19.27;;;6.90;99.90;;;;;;4730825;30;20053;-85
2020/12/23 08:45:47;;;;;;;;;;;6.90;99.90;;;;;;4723490;30;20086;-87
2020/12/23 08:48:20;;;;;;;45.25;16.88;;;6.90;99.90;;;;;;4742244;30;20339;-86
2020/12/23 08:51:04;;;;;;;49.40;17.23;;;6.90;99.90;;;;;;4717700;30;20098;-86
2020/12/23 08:53:30;;;;;;;50.88;18.33;;;6.90;99.90;;;;;;4754863;30;20198;-87
2020/12/23 08:55:56;;;;;;;48.97;17.63;;;6.90;99.90;;;;;;4731757;30;20131;-86
2020/12/23 08:58:23;;;;;;;54.85;19.17;;;6.90;99.90;;;;;;4747131;30;20064;-87
2020/12/23 09:01:02;;;;;;;50.42;19.15;;;6.90;99.90;;;;;;4716309;30;20143;-86
2020/12/23 09:03:28;;;;;;;55.67;19.27;;;6.90;99.90;;;;;;4729567;30;20059;-86
2020/12/23 09:05:58;;;;;;;48.20;20.30;;;6.90;99.90;;;;;;4688823;30;20485;-86
2020/12/23 09:08:26;;;;;;;60.75;21.92;;;6.90;99.90;;;;;;4706199;30;20052;-87
2020/12/23 09:10:57;;;;;;;50.17;19.15;;;6.90;99.90;;;;;;4734949;30;20052;-86
2020/12/23 09:13:31;;;;;;;47.95;19.98;;;7.00;99.90;;;;;;4720091;30;20417;-87
2020/12/23 09:16:00;;;;;;;59.55;19.17;;;7.00;99.90;;;;;;4731262;30;20044;-87
2020/12/23 09:18:26;;;;;;;48.92;19.15;;;7.00;99.90;;;;;;4746012;30;20059;-87
2020/12/23 09:21:03;;;;;;;72.05;21.15;;;7.10;99.90;;;;;;4725184;30;20071;-86
2020/12/23 09:23:29;;;;;;;57.25;19.35;;;7.10;99.90;;;;;;4720480;30;20534;-87
2020/12/23 09:25:55;;;;;;;64.03;21.10;;;7.10;99.90;;;;;;4705392;30;20048;-86
2020/12/23 09:28:26;;;;;;;60.08;20.48;;;7.10;99.90;;;;;;4720009;30;20048;-85
2020/12/23 09:30:58;;;;;;;62.60;20.25;;;7.10;99.90;;;;;;4751260;30;20052;-86
2020/12/23 09:33:25;;;;;;;47.13;16.13;;;7.10;99.90;;;;;;4730358;30;20059;-87
2020/12/23 09:36:02;;;;;;;57.47;17.65;;;7.10;99.90;;;;;;4718065;30;20053;-87
2020/12/23 09:38:34;;;;;;;43.47;17.63;;;7.10;99.90;;;;;;4738036;30;20048;-87
2020/12/23 09:41:00;;;;;;;57.15;17.73;;;7.10;99.90;;;;;;4731039;30;20106;-86
2020/12/23 09:43:28;;;;;;;49.13;17.83;;;7.20;99.90;;;;;;4723745;30;20099;-88
2020/12/23 09:45:59;;;;;;;48.05;16.67;;;7.20;99.90;;;;;;4735096;30;20489;-87
2020/12/23 09:48:27;;;;;;;46.72;18.10;;;7.10;99.90;;;;;;4729180;30;20067;-87
2020/12/23 09:50:53;;;;;;;51.55;17.50;;;7.20;99.90;;;;;;4711129;30;20052;-87
2020/12/23 09:53:20;;;;;;;44.42;16.35;;;7.20;99.90;;;;;;4723975;30;20056;-87
2020/12/23 09:55:47;;;;;;;45.63;17.42;;;7.10;99.90;;;;;;4710014;30;20044;-87
2020/12/23 09:58:14;;;;;;;48.70;17.55;;;7.20;99.90;;;;;;4723091;30;20452;-87
2020/12/23 10:00:41;;;;;;;54.60;17.30;;;7.20;99.90;;;;;;4730515;30;20055;-87
2020/12/23 10:03:08;;;;;;;50.15;17.27;;;7.20;99.90;;;;;;4726896;30;20459;-87
2020/12/23 10:05:37;;;;;;;63.08;18.27;;;7.30;99.90;;;;;;4730581;30;20496;-89
2020/12/23 10:08:04;;;;;;;53.08;16.40;;;7.30;99.90;;;;;;4717770;30;20082;-88
2020/12/23 10:10:30;;;;;;;54.90;19.13;;;7.20;99.90;;;;;;4732646;30;20051;-87
2020/12/23 10:12:55;;;;;;;61.72;18.10;;;7.30;99.90;;;;;;4715555;30;20382;-88
2020/12/23 10:15:21;;;;;;;55.80;18.90;;;7.30;99.90;;;;;;4744682;30;20059;-88
2020/12/23 10:17:47;;;;;;;56.92;16.48;;;7.30;99.90;;;;;;4716973;30;20085;-87
2020/12/23 10:20:13;;;;;;;44.33;18.10;;;7.30;99.90;;;;;;4708344;30;20405;-87
2020/12/23 10:22:39;;;;;;;47.75;15.70;;;7.30;99.90;;;;;;4726057;30;20052;-87
2020/12/23 10:25:06;;;;;;;36.20;13.77;;;7.30;99.90;;;;;;4733033;30;20079;-88
2020/12/23 10:27:32;;;;;;;48.70;17.88;;;7.30;99.90;;;;;;4723562;30;20060;-87
2020/12/23 10:29:58;;;;;;;42.40;15.68;;;7.30;99.90;;;;;;4703891;30;20063;-86
2020/12/23 10:32:25;;;;;;;53.05;18.95;;;7.30;99.90;;;;;;4744217;30;20048;-86
2020/12/23 10:34:51;;;;;;;57.42;19.42;;;7.40;99.90;;;;;;4750360;30;20660;-86
2020/12/23 10:37:20;;;;;;;47.97;16.75;;;7.40;99.90;;;;;;4736570;30;20053;-86
2020/12/23 10:39:47;;;;;;;50.88;17.33;;;7.40;99.90;;;;;;4734557;30;20528;-86
2020/12/23 10:42:13;;;;;;;45.90;18.20;;;7.40;99.90;;;;;;4721765;30;20102;-86
2020/12/23 10:44:39;;;;;;;57.20;19.83;;;7.40;99.90;;;;;;4734812;30;20056;-85
2020/12/23 10:47:05;;;;;;;45.30;17.90;;;7.50;99.90;;;;;;4724161;30;20052;-85
2020/12/23 10:49:30;;;;;;;37.50;15.48;;;7.40;99.90;;;;;;4733701;30;20060;-86
2020/12/23 10:51:57;;;;;;;51.78;18.42;;;7.40;99.90;;;;;;4732868;30;20086;-86
2020/12/23 10:54:25;;;;;;;63.78;19.60;;;7.40;99.90;;;;;;4733506;30;20076;-86
2020/12/23 10:56:51;;;;;;;45.95;18.75;;;7.40;99.90;;;;;;4715494;30;20059;-86
2020/12/23 10:59:17;;;;;;;58.50;20.02;;;7.50;99.90;;;;;;4735479;30;20049;-85
2020/12/23 11:01:43;;;;;;;53.10;19.67;;;7.50;99.90;;;;;;4738814;30;20048;-85
2020/12/23 11:04:09;;;;;;;60.67;20.45;;;7.50;99.90;;;;;;4733880;30;20504;-83
2020/12/23 11:06:35;;;;;;;46.92;18.60;;;7.50;99.90;;;;;;4724797;30;20140;-85
2020/12/23 11:09:04;;;;;;;45.85;18.58;;;7.50;99.90;;;;;;4706325;30;20131;-84
2020/12/23 11:11:31;;;;;;;44.15;18.13;;;7.50;99.90;;;;;;4717286;30;20059;-86
2020/12/23 11:13:57;;;;;;;60.97;20.42;;;7.50;99.90;;;;;;4726805;30;20148;-85
2020/12/23 11:16:27;;;;;;;51.05;18.83;;;7.50;99.90;;;;;;4744668;30;20079;-85
2020/12/23 11:18:53;;;;;;;54.55;17.58;;;7.50;99.90;;;;;;4722250;30;20988;-86
2020/12/23 11:21:20;;;;;;;41.22;15.65;;;7.60;99.90;;;;;;4733907;30;20479;-85
2020/12/23 11:23:45;;;;;;;44.88;17.30;;;7.60;99.90;;;;;;4717579;30;20044;-85
2020/12/23 11:26:21;;;;;;;40.90;15.93;;;7.50;99.90;;;;;;4704211;30;20078;-85
2020/12/23 11:28:47;;;;;;;48.17;19.42;;;7.40;99.90;;;;;;4733600;30;20127;-85
2020/12/23 11:31:14;;;;;;;42.28;15.80;;;7.40;99.90;;;;;;4717873;30;20650;-86
2020/12/23 11:33:41;;;;;;;46.15;17.23;;;7.40;99.90;;;;;;4720531;30;20055;-85
2020/12/23 11:36:07;;;;;;;43.20;16.88;;;7.50;99.90;;;;;;4733100;30;20052;-85
2020/12/23 11:38:33;;;;;;;46.25;18.42;;;7.40;99.90;;;;;;4729676;30;20062;-87
2020/12/23 11:40:59;;;;;;;33.35;14.02;;;7.50;99.90;;;;;;4715768;30;20488;-83
2020/12/23 11:43:25;;;;;;;35.17;13.98;;;7.50;99.90;;;;;;4723337;30;20052;-83
2020/12/23 11:45:51;;;;;;;44.63;15.70;;;7.50;99.90;;;;;;4718930;30;20164;-86
2020/12/23 11:48:17;;;;;;;38.28;16.33;;;7.50;99.90;;;;;;4741361;30;20052;-87
2020/12/23 11:50:43;;;;;;;36.17;14.63;;;7.50;99.90;;;;;;4716578;30;20529;-86
2020/12/23 11:53:10;;;;;;;32.65;15.02;;;7.50;99.90;;;;;;4740969;30;20044;-88
2020/12/23 11:55:35;;;;;;;35.97;15.80;;;7.50;99.90;;;;;;4724665;30;20082;-86
2020/12/23 11:58:04;;;;;;;31.50;16.77;;;7.50;99.90;;;;;;4699028;30;20061;-88
2020/12/23 12:00:30;;;;;;;37.95;16.25;;;7.50;99.90;;;;;;4747909;30;20123;-85
2020/12/23 12:03:00;;;;;;;46.42;18.48;;;7.50;99.90;;;;;;4726340;30;20557;-87
2020/12/23 12:05:26;;;;;;;29.02;14.32;;;7.50;99.90;;;;;;4746672;30;20053;-88
2020/12/23 12:07:52;;;;;;;36.20;17.40;;;7.50;99.90;;;;;;4738071;30;20066;-87
2020/12/23 12:10:17;;;;;;;24.45;13.80;;;7.60;99.90;;;;;;4717124;30;20452;-86
2020/12/23 12:12:43;;;;;;;27.70;12.40;;;7.50;99.90;;;;;;4715648;30;20129;-85
2020/12/23 12:15:10;;;;;;;29.10;15.20;;;7.50;99.90;;;;;;4696470;30;20570;-86
2020/12/23 12:17:36;;;;;;;31.13;16.08;;;7.50;99.90;;;;;;4727428;30;20068;-86
2020/12/23 12:20:01;;;;;;;30.45;15.85;;;7.50;99.90;;;;;;4716019;30;20056;-86
2020/12/23 12:22:27;;;;;;;30.98;15.70;;;7.50;99.90;;;;;;4716673;30;20437;-85
2020/12/23 12:24:53;;;;;;;29.10;16.65;;;7.50;99.90;;;;;;4701491;30;20058;-85
2020/12/23 12:27:19;;;;;;;32.95;17.40;;;7.50;99.90;;;;;;4747103;30;20068;-86
2020/12/23 12:29:45;;;;;;;30.55;16.20;;;7.50;99.90;;;;;;4717584;30;20040;-87
2020/12/23 12:32:11;;;;;;;38.72;18.33;;;7.40;99.90;;;;;;4718476;30;20045;-85
2020/12/23 12:34:37;;;;;;;42.38;18.42;;;7.40;99.90;;;;;;4732345;30;20052;-86
2020/12/23 12:37:03;;;;;;;34.53;17.83;;;7.40;99.90;;;;;;4732358;30;20074;-86
2020/12/23 12:39:32;;;;;;;28.15;16.15;;;7.40;99.90;;;;;;4748440;30;20056;-86
2020/12/23 12:42:01;;;;;;;39.28;20.60;;;7.50;99.90;;;;;;4719206;30;20052;-85